sensor_id;sensor_type;location;lat;lon;timestamp;P1;P2;P0
55304;PMS7003;65692;51.378;19.824;2024-01-06T00:02:21;15.50;15.25;13.00
55304;PMS7003;65692;51.378;19.824;2024-01-06T00:04:48;22.75;20.25;15.25
55304;PMS7003;65692;51.378;19.824;2024-01-06T00:07:15;18.75;14.25;11.00
55304;PMS7003;65692;51.378;19.824;2024-01-06T00:09:41;13.00;8.00;3.75
55304;PMS7003;65692;51.378;19.824;2024-01-06T00:12:08;27.50;20.00;16.00
55304;PMS7003;65692;51.378;19.824;2024-01-06T00:14:35;18.50;15.00;12.00
55304;PMS7003;65692;51.378;19.824;2024-01-06T00:17:02;21.75;18.25;12.50
55304;PMS7003;65692;51.378;19.824;2024-01-06T00:19:29;22.75;18.25;12.50
55304;PMS7003;65692;51.378;19.824;2024-01-06T00:21:56;23.25;15.50;12.25
55304;PMS7003;65692;51.378;19.824;2024-01-06T00:24:22;23.50;15.75;13.00
55304;PMS7003;65692;51.378;19.824;2024-01-06T00:26:49;22.00;16.50;12.00
55304;PMS7003;65692;51.378;19.824;2024-01-06T00:29:16;23.75;18.50;14.50
55304;PMS7003;65692;51.378;19.824;2024-01-06T00:31:42;18.50;18.00;12.50
55304;PMS7003;65692;51.378;19.824;2024-01-06T00:34:09;23.75;19.00;16.00
55304;PMS7003;65692;51.378;19.824;2024-01-06T00:36:35;18.50;16.00;14.00
55304;PMS7003;65692;51.378;19.824;2024-01-06T00:39:02;22.00;21.00;15.00
55304;PMS7003;65692;51.378;19.824;2024-01-06T00:41:30;23.25;19.25;15.00
55304;PMS7003;65692;51.378;19.824;2024-01-06T00:43:56;23.75;16.00;12.00
55304;PMS7003;65692;51.378;19.824;2024-01-06T00:46:23;27.75;20.50;15.00
55304;PMS7003;65692;51.378;19.824;2024-01-06T00:48:50;23.50;17.50;12.50
55304;PMS7003;65692;51.378;19.824;2024-01-06T00:51:16;18.00;15.25;12.25
55304;PMS7003;65692;51.378;19.824;2024-01-06T00:53:43;22.00;19.00;16.00
55304;PMS7003;65692;51.378;19.824;2024-01-06T00:56:10;15.50;15.50;12.00
55304;PMS7003;65692;51.378;19.824;2024-01-06T00:58:37;22.00;14.75;10.00
55304;PMS7003;65692;51.378;19.824;2024-01-06T01:01:03;15.75;12.50;9.25
55304;PMS7003;65692;51.378;19.824;2024-01-06T01:03:31;20.00;16.25;12.00
55304;PMS7003;65692;51.378;19.824;2024-01-06T01:05:57;23.00;19.50;13.00
55304;PMS7003;65692;51.378;19.824;2024-01-06T01:08:24;25.50;21.25;15.75
55304;PMS7003;65692;51.378;19.824;2024-01-06T01:10:51;24.75;19.00;14.50
55304;PMS7003;65692;51.378;19.824;2024-01-06T01:13:18;20.00;15.75;12.50
55304;PMS7003;65692;51.378;19.824;2024-01-06T01:15:44;18.00;15.00;11.00
55304;PMS7003;65692;51.378;19.824;2024-01-06T01:18:11;25.25;18.00;12.25
55304;PMS7003;65692;51.378;19.824;2024-01-06T01:20:39;21.00;18.75;13.00
55304;PMS7003;65692;51.378;19.824;2024-01-06T01:23:06;21.25;16.50;11.00
55304;PMS7003;65692;51.378;19.824;2024-01-06T01:25:32;20.25;17.50;13.00
55304;PMS7003;65692;51.378;19.824;2024-01-06T01:27:59;26.50;19.00;13.75
55304;PMS7003;65692;51.378;19.824;2024-01-06T01:30:26;26.75;21.25;16.00
55304;PMS7003;65692;51.378;19.824;2024-01-06T01:32:54;25.50;20.50;15.50
55304;PMS7003;65692;51.378;19.824;2024-01-06T01:35:20;25.00;19.00;15.00
55304;PMS7003;65692;51.378;19.824;2024-01-06T01:37:47;28.00;24.25;18.00
55304;PMS7003;65692;51.378;19.824;2024-01-06T01:40:14;24.50;23.00;16.00
55304;PMS7003;65692;51.378;19.824;2024-01-06T01:42:41;31.25;25.25;18.00
55304;PMS7003;65692;51.378;19.824;2024-01-06T01:45:08;34.25;26.00;21.50
55304;PMS7003;65692;51.378;19.824;2024-01-06T01:47:38;30.75;23.50;18.50
55304;PMS7003;65692;51.378;19.824;2024-01-06T01:50:06;29.50;19.50;14.75
55304;PMS7003;65692;51.378;19.824;2024-01-06T01:52:34;26.25;20.75;17.50
55304;PMS7003;65692;51.378;19.824;2024-01-06T01:55:01;19.50;14.50;11.00
55304;PMS7003;65692;51.378;19.824;2024-01-06T01:57:28;30.00;20.00;16.50
55304;PMS7003;65692;51.378;19.824;2024-01-06T01:59:55;20.25;17.50;11.50
55304;PMS7003;65692;51.378;19.824;2024-01-06T02:02:23;21.25;17.50;12.75
55304;PMS7003;65692;51.378;19.824;2024-01-06T02:04:50;29.25;21.50;13.25
55304;PMS7003;65692;51.378;19.824;2024-01-06T02:07:16;25.00;20.50;14.50
55304;PMS7003;65692;51.378;19.824;2024-01-06T02:09:43;24.50;15.25;11.00
55304;PMS7003;65692;51.378;19.824;2024-01-06T02:12:10;26.00;20.00;15.00
55304;PMS7003;65692;51.378;19.824;2024-01-06T02:14:37;25.25;19.00;16.00
55304;PMS7003;65692;51.378;19.824;2024-01-06T02:17:03;23.25;22.00;18.00
55304;PMS7003;65692;51.378;19.824;2024-01-06T02:19:30;31.00;18.50;14.50
55304;PMS7003;65692;51.378;19.824;2024-01-06T02:21:57;25.75;18.50;12.50
55304;PMS7003;65692;51.378;19.824;2024-01-06T02:24:23;21.75;18.50;12.25
55304;PMS7003;65692;51.378;19.824;2024-01-06T02:26:50;24.75;21.00;18.00
55304;PMS7003;65692;51.378;19.824;2024-01-06T02:29:17;23.75;21.00;18.00
55304;PMS7003;65692;51.378;19.824;2024-01-06T02:31:43;32.50;24.00;16.00
55304;PMS7003;65692;51.378;19.824;2024-01-06T02:34:10;16.75;16.75;11.50
55304;PMS7003;65692;51.378;19.824;2024-01-06T02:36:37;27.25;25.50;18.00
55304;PMS7003;65692;51.378;19.824;2024-01-06T02:39:04;23.25;18.50;10.50
55304;PMS7003;65692;51.378;19.824;2024-01-06T02:41:31;21.00;16.50;13.50
55304;PMS7003;65692;51.378;19.824;2024-01-06T02:43:58;22.25;19.75;13.50
55304;PMS7003;65692;51.378;19.824;2024-01-06T02:46:24;32.67;16.00;10.67
55304;PMS7003;65692;51.378;19.824;2024-01-06T02:48:51;24.00;21.00;15.75
55304;PMS7003;65692;51.378;19.824;2024-01-06T02:51:18;35.25;27.50;19.00
55304;PMS7003;65692;51.378;19.824;2024-01-06T02:53:44;21.75;17.75;13.50
55304;PMS7003;65692;51.378;19.824;2024-01-06T02:56:11;29.75;21.75;15.00
55304;PMS7003;65692;51.378;19.824;2024-01-06T02:58:38;27.00;21.25;15.75
55304;PMS7003;65692;51.378;19.824;2024-01-06T03:01:04;20.25;18.25;13.00
55304;PMS7003;65692;51.378;19.824;2024-01-06T03:03:31;22.50;19.00;15.25
55304;PMS7003;65692;51.378;19.824;2024-01-06T03:05:58;32.00;27.50;20.50
55304;PMS7003;65692;51.378;19.824;2024-01-06T03:08:25;24.75;18.75;15.00
55304;PMS7003;65692;51.378;19.824;2024-01-06T03:10:51;21.50;18.00;13.00
55304;PMS7003;65692;51.378;19.824;2024-01-06T03:13:18;29.00;25.25;16.50
55304;PMS7003;65692;51.378;19.824;2024-01-06T03:15:45;30.25;22.00;15.25
55304;PMS7003;65692;51.378;19.824;2024-01-06T03:18:12;31.50;25.00;19.00
55304;PMS7003;65692;51.378;19.824;2024-01-06T03:20:39;26.75;20.00;15.00
55304;PMS7003;65692;51.378;19.824;2024-01-06T03:23:05;22.25;18.75;16.00
55304;PMS7003;65692;51.378;19.824;2024-01-06T03:25:32;29.00;24.50;17.00
55304;PMS7003;65692;51.378;19.824;2024-01-06T03:27:59;25.50;19.00;14.00
55304;PMS7003;65692;51.378;19.824;2024-01-06T03:30:25;31.50;27.50;21.00
55304;PMS7003;65692;51.378;19.824;2024-01-06T03:32:53;28.75;24.75;20.00
55304;PMS7003;65692;51.378;19.824;2024-01-06T03:35:20;29.25;23.50;19.00
55304;PMS7003;65692;51.378;19.824;2024-01-06T03:37:46;27.00;24.75;16.50
55304;PMS7003;65692;51.378;19.824;2024-01-06T03:40:13;27.25;21.25;17.00
55304;PMS7003;65692;51.378;19.824;2024-01-06T03:42:40;29.00;19.50;15.25
55304;PMS7003;65692;51.378;19.824;2024-01-06T03:45:06;31.50;26.75;19.25
55304;PMS7003;65692;51.378;19.824;2024-01-06T03:47:33;38.75;28.25;19.00
55304;PMS7003;65692;51.378;19.824;2024-01-06T03:50:00;37.50;31.50;22.00
55304;PMS7003;65692;51.378;19.824;2024-01-06T03:52:27;34.50;29.00;19.50
55304;PMS7003;65692;51.378;19.824;2024-01-06T03:54:53;32.50;26.50;20.50
55304;PMS7003;65692;51.378;19.824;2024-01-06T03:57:21;34.00;30.00;22.00
55304;PMS7003;65692;51.378;19.824;2024-01-06T03:59:48;41.00;30.50;22.50
55304;PMS7003;65692;51.378;19.824;2024-01-06T04:02:14;38.00;32.00;23.00
55304;PMS7003;65692;51.378;19.824;2024-01-06T04:04:41;35.75;26.25;18.75
55304;PMS7003;65692;51.378;19.824;2024-01-06T04:07:07;57.00;38.00;27.50
55304;PMS7003;65692;51.378;19.824;2024-01-06T04:09:34;36.75;29.00;20.00
55304;PMS7003;65692;51.378;19.824;2024-01-06T04:12:01;37.50;32.00;25.00
55304;PMS7003;65692;51.378;19.824;2024-01-06T04:14:28;52.75;31.50;20.00
55304;PMS7003;65692;51.378;19.824;2024-01-06T04:16:55;47.25;36.00;26.50
55304;PMS7003;65692;51.378;19.824;2024-01-06T04:19:23;41.75;38.50;27.25
55304;PMS7003;65692;51.378;19.824;2024-01-06T04:21:50;48.00;42.00;31.00
55304;PMS7003;65692;51.378;19.824;2024-01-06T04:24:17;52.25;36.25;25.50
55304;PMS7003;65692;51.378;19.824;2024-01-06T04:26:43;51.75;41.75;30.00
55304;PMS7003;65692;51.378;19.824;2024-01-06T04:29:11;49.75;42.25;27.75
55304;PMS7003;65692;51.378;19.824;2024-01-06T04:31:39;54.00;40.00;26.75
55304;PMS7003;65692;51.378;19.824;2024-01-06T04:34:06;42.50;37.50;27.50
55304;PMS7003;65692;51.378;19.824;2024-01-06T04:36:33;52.50;37.50;27.50
55304;PMS7003;65692;51.378;19.824;2024-01-06T04:38:59;67.00;44.50;30.25
55304;PMS7003;65692;51.378;19.824;2024-01-06T04:41:26;46.25;39.00;21.75
55304;PMS7003;65692;51.378;19.824;2024-01-06T04:43:52;64.25;44.50;30.00
55304;PMS7003;65692;51.378;19.824;2024-01-06T04:46:19;57.00;38.75;29.50
55304;PMS7003;65692;51.378;19.824;2024-01-06T04:48:46;56.25;41.25;28.75
55304;PMS7003;65692;51.378;19.824;2024-01-06T04:51:13;65.50;47.00;31.00
55304;PMS7003;65692;51.378;19.824;2024-01-06T04:53:40;44.25;33.50;20.75
55304;PMS7003;65692;51.378;19.824;2024-01-06T04:56:06;55.25;45.25;30.00
55304;PMS7003;65692;51.378;19.824;2024-01-06T04:58:33;68.75;47.50;32.50
55304;PMS7003;65692;51.378;19.824;2024-01-06T05:01:01;66.25;48.00;32.00
55304;PMS7003;65692;51.378;19.824;2024-01-06T05:03:29;58.50;41.25;25.50
55304;PMS7003;65692;51.378;19.824;2024-01-06T05:05:56;59.50;45.50;30.50
55304;PMS7003;65692;51.378;19.824;2024-01-06T05:08:22;51.50;40.25;27.00
55304;PMS7003;65692;51.378;19.824;2024-01-06T05:10:51;51.00;41.50;29.50
55304;PMS7003;65692;51.378;19.824;2024-01-06T05:13:18;54.50;44.00;32.50
55304;PMS7003;65692;51.378;19.824;2024-01-06T05:15:45;46.25;40.00;29.00
55304;PMS7003;65692;51.378;19.824;2024-01-06T05:18:11;48.00;36.00;22.00
55304;PMS7003;65692;51.378;19.824;2024-01-06T05:20:38;59.00;44.75;29.00
55304;PMS7003;65692;51.378;19.824;2024-01-06T05:23:07;68.00;48.25;31.25
55304;PMS7003;65692;51.378;19.824;2024-01-06T05:25:33;53.50;38.75;26.75
55304;PMS7003;65692;51.378;19.824;2024-01-06T05:28:00;58.75;47.50;30.00
55304;PMS7003;65692;51.378;19.824;2024-01-06T05:30:27;58.25;48.00;31.00
55304;PMS7003;65692;51.378;19.824;2024-01-06T05:32:54;54.50;45.25;30.00
55304;PMS7003;65692;51.378;19.824;2024-01-06T05:35:21;55.00;37.50;27.75
55304;PMS7003;65692;51.378;19.824;2024-01-06T05:37:47;48.00;40.50;29.00
55304;PMS7003;65692;51.378;19.824;2024-01-06T05:40:14;67.50;50.00;31.50
55304;PMS7003;65692;51.378;19.824;2024-01-06T05:42:41;53.50;38.25;27.50
55304;PMS7003;65692;51.378;19.824;2024-01-06T05:45:12;52.75;41.00;30.00
55304;PMS7003;65692;51.378;19.824;2024-01-06T05:47:41;49.50;41.25;27.50
55304;PMS7003;65692;51.378;19.824;2024-01-06T05:50:08;53.50;44.00;29.50
55304;PMS7003;65692;51.378;19.824;2024-01-06T05:52:38;54.25;42.75;30.00
55304;PMS7003;65692;51.378;19.824;2024-01-06T05:55:04;63.50;45.75;33.00
55304;PMS7003;65692;51.378;19.824;2024-01-06T05:57:31;60.00;45.50;33.00
55304;PMS7003;65692;51.378;19.824;2024-01-06T05:59:59;52.00;40.00;30.25
55304;PMS7003;65692;51.378;19.824;2024-01-06T06:02:25;47.50;43.50;30.00
55304;PMS7003;65692;51.378;19.824;2024-01-06T06:04:52;50.00;35.00;22.50
55304;PMS7003;65692;51.378;19.824;2024-01-06T06:07:19;34.50;25.25;24.75
55304;PMS7003;65692;51.378;19.824;2024-01-06T06:09:46;59.00;44.50;29.00
55304;PMS7003;65692;51.378;19.824;2024-01-06T06:12:14;65.00;46.50;33.00
55304;PMS7003;65692;51.378;19.824;2024-01-06T06:14:40;60.75;46.25;30.00
55304;PMS7003;65692;51.378;19.824;2024-01-06T06:17:07;61.25;44.00;30.25
55304;PMS7003;65692;51.378;19.824;2024-01-06T06:19:34;54.50;42.50;29.50
55304;PMS7003;65692;51.378;19.824;2024-01-06T06:22:00;56.00;41.50;26.00
55304;PMS7003;65692;51.378;19.824;2024-01-06T06:24:27;61.25;44.75;32.75
55304;PMS7003;65692;51.378;19.824;2024-01-06T06:26:54;21.75;16.50;8.50
55304;PMS7003;65692;51.378;19.824;2024-01-06T06:29:20;39.25;34.75;22.00
55304;PMS7003;65692;51.378;19.824;2024-01-06T06:31:47;52.50;37.25;26.50
55304;PMS7003;65692;51.378;19.824;2024-01-06T06:34:15;45.00;37.50;28.50
55304;PMS7003;65692;51.378;19.824;2024-01-06T06:36:42;45.75;34.75;24.00
55304;PMS7003;65692;51.378;19.824;2024-01-06T06:39:09;50.75;37.25;28.50
55304;PMS7003;65692;51.378;19.824;2024-01-06T06:41:36;43.50;31.25;24.75
55304;PMS7003;65692;51.378;19.824;2024-01-06T06:44:03;56.50;42.75;30.25
55304;PMS7003;65692;51.378;19.824;2024-01-06T06:46:30;64.25;44.25;29.00
55304;PMS7003;65692;51.378;19.824;2024-01-06T06:48:58;54.00;45.25;28.00
55304;PMS7003;65692;51.378;19.824;2024-01-06T06:51:24;60.50;41.25;29.25
55304;PMS7003;65692;51.378;19.824;2024-01-06T06:53:54;62.50;45.00;31.00
55304;PMS7003;65692;51.378;19.824;2024-01-06T06:56:20;54.75;36.75;27.25
55304;PMS7003;65692;51.378;19.824;2024-01-06T06:58:47;56.00;40.00;30.00
55304;PMS7003;65692;51.378;19.824;2024-01-06T07:01:14;72.50;55.25;34.50
55304;PMS7003;65692;51.378;19.824;2024-01-06T07:03:42;60.25;48.50;33.50
55304;PMS7003;65692;51.378;19.824;2024-01-06T07:06:11;125.75;105.00;57.00
55304;PMS7003;65692;51.378;19.824;2024-01-06T07:08:37;101.50;70.50;42.00
55304;PMS7003;65692;51.378;19.824;2024-01-06T07:11:04;129.67;95.33;52.00
55304;PMS7003;65692;51.378;19.824;2024-01-06T07:13:31;145.50;112.50;62.00
55304;PMS7003;65692;51.378;19.824;2024-01-06T07:15:58;94.75;67.75;43.50
55304;PMS7003;65692;51.378;19.824;2024-01-06T07:18:42;133.00;109.50;66.25
55304;PMS7003;65692;51.378;19.824;2024-01-06T07:21:09;71.00;49.50;30.75
55304;PMS7003;65692;51.378;19.824;2024-01-06T07:23:36;56.25;47.50;30.00
55304;PMS7003;65692;51.378;19.824;2024-01-06T07:26:03;51.25;38.00;26.00
55304;PMS7003;65692;51.378;19.824;2024-01-06T07:28:29;59.00;43.00;28.00
55304;PMS7003;65692;51.378;19.824;2024-01-06T07:30:56;43.25;38.50;25.50
55304;PMS7003;65692;51.378;19.824;2024-01-06T07:33:23;45.00;36.00;26.75
55304;PMS7003;65692;51.378;19.824;2024-01-06T07:35:51;56.50;39.50;29.00
55304;PMS7003;65692;51.378;19.824;2024-01-06T07:38:18;45.00;37.50;25.00
55304;PMS7003;65692;51.378;19.824;2024-01-06T07:40:45;38.50;37.00;27.75
55304;PMS7003;65692;51.378;19.824;2024-01-06T07:43:12;49.25;39.25;28.00
55304;PMS7003;65692;51.378;19.824;2024-01-06T07:45:39;43.25;29.50;19.50
55304;PMS7003;65692;51.378;19.824;2024-01-06T07:48:06;51.00;35.50;21.25
55304;PMS7003;65692;51.378;19.824;2024-01-06T07:50:32;42.00;36.50;27.00
55304;PMS7003;65692;51.378;19.824;2024-01-06T07:52:59;48.00;35.75;25.00
55304;PMS7003;65692;51.378;19.824;2024-01-06T07:55:26;46.00;28.00;16.50
55304;PMS7003;65692;51.378;19.824;2024-01-06T07:57:55;52.75;42.00;27.50
55304;PMS7003;65692;51.378;19.824;2024-01-06T08:00:22;39.75;37.50;29.00
55304;PMS7003;65692;51.378;19.824;2024-01-06T08:02:49;43.75;36.00;25.25
55304;PMS7003;65692;51.378;19.824;2024-01-06T08:05:15;56.00;46.25;33.25
55304;PMS7003;65692;51.378;19.824;2024-01-06T08:07:42;82.75;61.50;41.00
55304;PMS7003;65692;51.378;19.824;2024-01-06T08:10:09;56.75;42.25;28.00
55304;PMS7003;65692;51.378;19.824;2024-01-06T08:12:35;90.00;70.00;46.00
55304;PMS7003;65692;51.378;19.824;2024-01-06T08:15:03;39.00;32.50;25.25
55304;PMS7003;65692;51.378;19.824;2024-01-06T08:17:31;49.00;32.25;23.00
55304;PMS7003;65692;51.378;19.824;2024-01-06T08:19:57;52.25;41.50;26.25
55304;PMS7003;65692;51.378;19.824;2024-01-06T08:22:24;32.75;29.25;19.75
55304;PMS7003;65692;51.378;19.824;2024-01-06T08:24:51;32.50;22.25;15.00
55304;PMS7003;65692;51.378;19.824;2024-01-06T08:27:18;45.50;39.25;26.75
55304;PMS7003;65692;51.378;19.824;2024-01-06T08:29:44;42.75;36.75;25.25
55304;PMS7003;65692;51.378;19.824;2024-01-06T08:32:11;53.50;41.75;30.25
55304;PMS7003;65692;51.378;19.824;2024-01-06T08:34:39;48.25;39.00;27.50
55304;PMS7003;65692;51.378;19.824;2024-01-06T08:37:06;60.00;37.50;24.25
55304;PMS7003;65692;51.378;19.824;2024-01-06T08:39:32;46.75;36.50;22.00
55304;PMS7003;65692;51.378;19.824;2024-01-06T08:41:59;50.75;36.50;23.00
55304;PMS7003;65692;51.378;19.824;2024-01-06T08:44:27;35.75;24.25;17.50
55304;PMS7003;65692;51.378;19.824;2024-01-06T08:46:54;63.75;46.75;28.00
55304;PMS7003;65692;51.378;19.824;2024-01-06T08:49:21;77.75;52.75;35.25
55304;PMS7003;65692;51.378;19.824;2024-01-06T08:51:48;65.25;47.25;33.00
55304;PMS7003;65692;51.378;19.824;2024-01-06T08:54:15;81.25;59.25;39.25
55304;PMS7003;65692;51.378;19.824;2024-01-06T08:56:43;52.75;45.00;29.75
55304;PMS7003;65692;51.378;19.824;2024-01-06T08:59:10;63.75;51.00;33.00
55304;PMS7003;65692;51.378;19.824;2024-01-06T09:01:36;78.50;63.75;41.75
55304;PMS7003;65692;51.378;19.824;2024-01-06T09:04:04;97.00;74.25;45.25
55304;PMS7003;65692;51.378;19.824;2024-01-06T09:06:33;43.00;35.00;24.00
55304;PMS7003;65692;51.378;19.824;2024-01-06T09:09:00;99.75;69.75;41.00
55304;PMS7003;65692;51.378;19.824;2024-01-06T09:11:27;48.25;43.00;28.50
55304;PMS7003;65692;51.378;19.824;2024-01-06T09:13:53;130.00;92.50;49.50
55304;PMS7003;65692;51.378;19.824;2024-01-06T09:16:20;121.25;81.75;45.25
55304;PMS7003;65692;51.378;19.824;2024-01-06T09:18:47;138.75;94.00;48.75
55304;PMS7003;65692;51.378;19.824;2024-01-06T09:21:14;84.00;59.25;37.25
55304;PMS7003;65692;51.378;19.824;2024-01-06T09:23:40;115.25;85.25;46.50
55304;PMS7003;65692;51.378;19.824;2024-01-06T09:26:07;197.00;140.25;64.25
55304;PMS7003;65692;51.378;19.824;2024-01-06T09:28:33;95.00;66.25;40.50
55304;PMS7003;65692;51.378;19.824;2024-01-06T09:31:00;63.00;44.25;29.75
55304;PMS7003;65692;51.378;19.824;2024-01-06T09:33:27;36.50;34.00;26.25
55304;PMS7003;65692;51.378;19.824;2024-01-06T09:35:53;45.50;33.25;26.00
55304;PMS7003;65692;51.378;19.824;2024-01-06T09:38:20;59.25;45.50;30.75
55304;PMS7003;65692;51.378;19.824;2024-01-06T09:40:47;82.75;58.00;34.25
55304;PMS7003;65692;51.378;19.824;2024-01-06T09:43:15;96.75;66.75;41.25
55304;PMS7003;65692;51.378;19.824;2024-01-06T09:45:43;92.00;64.75;36.50
55304;PMS7003;65692;51.378;19.824;2024-01-06T09:48:12;59.25;48.75;33.75
55304;PMS7003;65692;51.378;19.824;2024-01-06T09:50:40;54.25;43.50;26.50
55304;PMS7003;65692;51.378;19.824;2024-01-06T09:53:08;66.75;49.50;31.00
55304;PMS7003;65692;51.378;19.824;2024-01-06T09:55:37;43.67;33.67;24.67
55304;PMS7003;65692;51.378;19.824;2024-01-06T09:58:05;42.33;33.00;24.00
55304;PMS7003;65692;51.378;19.824;2024-01-06T10:00:34;56.50;43.00;27.25
55304;PMS7003;65692;51.378;19.824;2024-01-06T10:03:01;49.25;41.25;27.25
55304;PMS7003;65692;51.378;19.824;2024-01-06T10:05:28;40.67;35.33;25.00
55304;PMS7003;65692;51.378;19.824;2024-01-06T10:07:55;49.67;37.00;23.00
55304;PMS7003;65692;51.378;19.824;2024-01-06T10:10:22;45.33;30.33;18.67
55304;PMS7003;65692;51.378;19.824;2024-01-06T10:12:49;70.00;52.75;33.25
55304;PMS7003;65692;51.378;19.824;2024-01-06T10:15:19;73.50;56.50;33.50
55304;PMS7003;65692;51.378;19.824;2024-01-06T10:17:46;69.50;48.75;32.75
55304;PMS7003;65692;51.378;19.824;2024-01-06T10:20:13;73.50;50.00;31.00
55304;PMS7003;65692;51.378;19.824;2024-01-06T10:22:41;79.75;60.50;38.75
55304;PMS7003;65692;51.378;19.824;2024-01-06T10:25:09;64.75;50.50;30.25
55304;PMS7003;65692;51.378;19.824;2024-01-06T10:27:40;56.75;43.25;28.50
55304;PMS7003;65692;51.378;19.824;2024-01-06T10:30:07;63.75;49.00;33.00
55304;PMS7003;65692;51.378;19.824;2024-01-06T10:32:35;81.75;58.00;38.00
55304;PMS7003;65692;51.378;19.824;2024-01-06T10:35:03;46.00;39.50;27.25
55304;PMS7003;65692;51.378;19.824;2024-01-06T10:37:32;60.00;45.00;25.25
55304;PMS7003;65692;51.378;19.824;2024-01-06T10:40:32;70.50;49.25;30.25
55304;PMS7003;65692;51.378;19.824;2024-01-06T10:42:51;84.25;57.25;36.75
55304;PMS7003;65692;51.378;19.824;2024-01-06T10:45:18;74.00;55.00;32.25
55304;PMS7003;65692;51.378;19.824;2024-01-06T10:47:45;64.50;44.00;28.25
55304;PMS7003;65692;51.378;19.824;2024-01-06T10:50:13;77.00;56.75;36.50
55304;PMS7003;65692;51.378;19.824;2024-01-06T10:52:41;87.75;64.25;37.50
55304;PMS7003;65692;51.378;19.824;2024-01-06T10:55:08;47.00;36.33;24.67
55304;PMS7003;65692;51.378;19.824;2024-01-06T10:57:36;66.75;45.75;25.00
55304;PMS7003;65692;51.378;19.824;2024-01-06T11:00:04;58.00;42.00;24.00
55304;PMS7003;65692;51.378;19.824;2024-01-06T11:02:32;42.25;36.50;26.25
55304;PMS7003;65692;51.378;19.824;2024-01-06T11:04:59;34.00;26.00;18.33
55304;PMS7003;65692;51.378;19.824;2024-01-06T11:07:25;46.00;34.00;22.75
55304;PMS7003;65692;51.378;19.824;2024-01-06T11:12:32;34.67;24.33;18.00
55304;PMS7003;65692;51.378;19.824;2024-01-06T11:14:59;33.67;28.33;20.33
55304;PMS7003;65692;51.378;19.824;2024-01-06T11:20:11;32.33;21.67;12.67
55304;PMS7003;65692;51.378;19.824;2024-01-06T11:22:38;36.33;26.67;24.00
55304;PMS7003;65692;51.378;19.824;2024-01-06T11:25:07;36.00;25.33;18.33
55304;PMS7003;65692;51.378;19.824;2024-01-06T11:27:34;29.67;24.67;18.33
55304;PMS7003;65692;51.378;19.824;2024-01-06T11:30:02;39.67;26.00;20.00
55304;PMS7003;65692;51.378;19.824;2024-01-06T11:35:06;27.67;24.67;18.67
55304;PMS7003;65692;51.378;19.824;2024-01-06T11:37:36;40.00;30.33;20.67
55304;PMS7003;65692;51.378;19.824;2024-01-06T11:40:25;33.00;26.67;20.00
55304;PMS7003;65692;51.378;19.824;2024-01-06T11:43:07;41.00;30.00;21.00
55304;PMS7003;65692;51.378;19.824;2024-01-06T11:45:35;35.00;30.67;22.67
55304;PMS7003;65692;51.378;19.824;2024-01-06T11:48:03;35.33;26.33;17.00
55304;PMS7003;65692;51.378;19.824;2024-01-06T11:50:32;31.67;22.33;17.00
55304;PMS7003;65692;51.378;19.824;2024-01-06T11:52:59;29.67;26.33;21.67
55304;PMS7003;65692;51.378;19.824;2024-01-06T11:55:26;29.33;25.00;17.67
55304;PMS7003;65692;51.378;19.824;2024-01-06T11:57:59;29.33;20.67;15.33
55304;PMS7003;65692;51.378;19.824;2024-01-06T12:00:31;20.00;19.67;16.00
55304;PMS7003;65692;51.378;19.824;2024-01-06T12:02:58;29.67;21.67;16.00
55304;PMS7003;65692;51.378;19.824;2024-01-06T12:05:25;30.67;26.67;21.33
55304;PMS7003;65692;51.378;19.824;2024-01-06T12:07:54;23.67;19.33;16.00
55304;PMS7003;65692;51.378;19.824;2024-01-06T12:10:21;27.33;21.00;16.67
55304;PMS7003;65692;51.378;19.824;2024-01-06T12:15:27;29.00;21.33;16.00
55304;PMS7003;65692;51.378;19.824;2024-01-06T12:17:54;31.33;23.33;16.33
55304;PMS7003;65692;51.378;19.824;2024-01-06T12:20:22;27.67;22.67;16.33
55304;PMS7003;65692;51.378;19.824;2024-01-06T12:22:52;28.00;18.33;14.67
55304;PMS7003;65692;51.378;19.824;2024-01-06T12:25:23;36.67;26.33;19.67
55304;PMS7003;65692;51.378;19.824;2024-01-06T12:27:50;32.33;25.33;19.33
55304;PMS7003;65692;51.378;19.824;2024-01-06T12:30:17;24.67;19.67;13.67
55304;PMS7003;65692;51.378;19.824;2024-01-06T12:32:46;26.00;23.00;16.00
55304;PMS7003;65692;51.378;19.824;2024-01-06T12:35:13;26.33;23.00;17.00
55304;PMS7003;65692;51.378;19.824;2024-01-06T12:37:43;34.25;22.25;13.25
55304;PMS7003;65692;51.378;19.824;2024-01-06T12:40:11;23.33;21.67;16.33
55304;PMS7003;65692;51.378;19.824;2024-01-06T12:42:39;26.00;22.00;16.00
55304;PMS7003;65692;51.378;19.824;2024-01-06T12:45:06;26.67;23.00;19.00
55304;PMS7003;65692;51.378;19.824;2024-01-06T12:47:33;25.67;18.67;14.00
55304;PMS7003;65692;51.378;19.824;2024-01-06T12:50:00;31.67;25.67;19.00
55304;PMS7003;65692;51.378;19.824;2024-01-06T12:52:26;22.50;21.00;15.75
55304;PMS7003;65692;51.378;19.824;2024-01-06T12:54:53;32.33;23.33;16.33
55304;PMS7003;65692;51.378;19.824;2024-01-06T12:57:20;29.33;20.00;16.33
55304;PMS7003;65692;51.378;19.824;2024-01-06T12:59:47;38.00;28.00;20.33
55304;PMS7003;65692;51.378;19.824;2024-01-06T13:02:13;30.00;21.33;14.00
55304;PMS7003;65692;51.378;19.824;2024-01-06T13:04:40;33.67;29.00;20.00
55304;PMS7003;65692;51.378;19.824;2024-01-06T13:07:07;30.00;21.33;16.33
55304;PMS7003;65692;51.378;19.824;2024-01-06T13:09:34;29.33;26.67;19.00
55304;PMS7003;65692;51.378;19.824;2024-01-06T13:12:01;29.67;24.33;17.67
55304;PMS7003;65692;51.378;19.824;2024-01-06T13:14:28;29.67;23.00;17.00
55304;PMS7003;65692;51.378;19.824;2024-01-06T13:16:56;30.33;24.33;18.33
55304;PMS7003;65692;51.378;19.824;2024-01-06T13:19:23;30.67;25.67;19.00
55304;PMS7003;65692;51.378;19.824;2024-01-06T13:21:50;32.33;26.00;19.00
55304;PMS7003;65692;51.378;19.824;2024-01-06T13:24:16;78.00;63.25;43.25
55304;PMS7003;65692;51.378;19.824;2024-01-06T13:26:43;179.00;116.00;20.25
55304;PMS7003;65692;51.378;19.824;2024-01-06T13:29:10;105.50;73.00;47.00
55304;PMS7003;65692;51.378;19.824;2024-01-06T13:31:37;98.00;67.00;39.25
55304;PMS7003;65692;51.378;19.824;2024-01-06T13:34:04;93.25;63.50;37.75
55304;PMS7003;65692;51.378;19.824;2024-01-06T13:36:32;85.25;54.75;33.25
55304;PMS7003;65692;51.378;19.824;2024-01-06T13:38:59;74.25;52.25;32.50
55304;PMS7003;65692;51.378;19.824;2024-01-06T13:41:26;112.50;73.75;41.25
55304;PMS7003;65692;51.378;19.824;2024-01-06T13:43:53;51.25;36.50;22.00
55304;PMS7003;65692;51.378;19.824;2024-01-06T13:46:21;58.75;43.25;26.75